Portada
METAR-TAF:

METAR-TAF

Aeropuertos :

Kasane, Botsuana

latitud: 17-49S, longitud: 025-09E, altitud: 968 m

METAR: falta

Hora: 16:10 (14:10 UTC)

Pronóstico

El informe se hizo hace 5 horas y 10 minutos, a las 09:00 UTC
Pronóstico válido del 23 a las 12 UTC al 23 a las 21 UTC
Viento 5 kt del este
Visibilidad 10 km o más
sin nubes por debajo de 1500 m y sin presencia de cumulonimbus.

TAF: FBKE 230900Z 2312/2321 10005KT CAVOK

Observaciones y pronósticos meteorológicos de más de 4000 aeropuertos (mensajes METAR y TAF).

Los puntos amarillos y rojos representan las estaciones disponibles.

Ponga el ratón en el punto deseado para ver el nombre de la estación.

Haga clic para ver las observaciones y los pronósticos meteorológicos.

Para cambiar el mapa : haga clic en los botones verdes con una cruz de color negro para hacer un zoom, en el botón verde con un guión para alejar o en las flechas verdes para mapas adyacentes.


METAR-TAF: